sensor_id;sensor_type;location;lat;lon;timestamp;pressure;altitude;pressure_sealevel;temperature;humidity
11099;BME280;12223;42.650;23.364;2023-05-12T00:00:13;95007.38;;;9.73;100.00
11099;BME280;12223;42.650;23.364;2023-05-12T00:02:40;95004.75;;;9.73;100.00
11099;BME280;12223;42.650;23.364;2023-05-12T00:05:08;94995.44;;;9.64;100.00
11099;BME280;12223;42.650;23.364;2023-05-12T00:07:34;94995.22;;;9.65;100.00
11099;BME280;12223;42.650;23.364;2023-05-12T00:10:03;94993.63;;;9.58;100.00
11099;BME280;12223;42.650;23.364;2023-05-12T00:12:31;94997.09;;;9.52;100.00
11099;BME280;12223;42.650;23.364;2023-05-12T00:14:57;95007.84;;;9.50;100.00
11099;BME280;12223;42.650;23.364;2023-05-12T00:17:25;94998.94;;;9.45;100.00
11099;BME280;12223;42.650;23.364;2023-05-12T00:19:52;94994.66;;;9.50;100.00
11099;BME280;12223;42.650;23.364;2023-05-12T00:22:19;94997.53;;;9.36;100.00
11099;BME280;12223;42.650;23.364;2023-05-12T00:24:45;94994.47;;;9.39;100.00
11099;BME280;12223;42.650;23.364;2023-05-12T00:27:16;95004.84;;;9.34;100.00
11099;BME280;12223;42.650;23.364;2023-05-12T00:29:43;94999.78;;;9.25;100.00
11099;BME280;12223;42.650;23.364;2023-05-12T00:32:10;94992.06;;;9.24;100.00
11099;BME280;12223;42.650;23.364;2023-05-12T00:34:37;94998.97;;;9.18;100.00
11099;BME280;12223;42.650;23.364;2023-05-12T00:37:04;94997.34;;;9.24;100.00
11099;BME280;12223;42.650;23.364;2023-05-12T00:39:31;94989.25;;;9.12;100.00
11099;BME280;12223;42.650;23.364;2023-05-12T00:41:58;94996.75;;;9.15;100.00
11099;BME280;12223;42.650;23.364;2023-05-12T00:44:27;95001.22;;;9.15;100.00
11099;BME280;12223;42.650;23.364;2023-05-12T00:46:58;94993.31;;;9.08;100.00
11099;BME280;12223;42.650;23.364;2023-05-12T00:49:26;94996.97;;;9.07;100.00
11099;BME280;12223;42.650;23.364;2023-05-12T00:51:53;94996.78;;;9.09;100.00
11099;BME280;12223;42.650;23.364;2023-05-12T00:54:21;94997.34;;;9.04;100.00
11099;BME280;12223;42.650;23.364;2023-05-12T00:56:48;95004.25;;;9.05;100.00
11099;BME280;12223;42.650;23.364;2023-05-12T00:59:15;94995.53;;;8.98;100.00
11099;BME280;12223;42.650;23.364;2023-05-12T01:01:44;94988.88;;;8.89;100.00
11099;BME280;12223;42.650;23.364;2023-05-12T01:04:12;94993.72;;;8.85;100.00
11099;BME280;12223;42.650;23.364;2023-05-12T01:06:43;94987.06;;;8.83;100.00
11099;BME280;12223;42.650;23.364;2023-05-12T01:09:11;94993.94;;;8.77;100.00
11099;BME280;12223;42.650;23.364;2023-05-12T01:11:39;94983.41;;;8.71;100.00
11099;BME280;12223;42.650;23.364;2023-05-12T01:14:07;94991.91;;;8.66;100.00
11099;BME280;12223;42.650;23.364;2023-05-12T01:16:38;94979.53;;;8.67;100.00
11099;BME280;12223;42.650;23.364;2023-05-12T01:19:14;94979.53;;;8.67;100.00
11099;BME280;12223;42.650;23.364;2023-05-12T01:21:44;94987.66;;;8.52;100.00
11099;BME280;12223;42.650;23.364;2023-05-12T01:24:13;94983.22;;;8.59;100.00
11099;BME280;12223;42.650;23.364;2023-05-12T01:26:42;94979.56;;;8.47;100.00
11099;BME280;12223;42.650;23.364;2023-05-12T01:29:10;94983.78;;;8.48;100.00
11099;BME280;12223;42.650;23.364;2023-05-12T01:31:37;94985.00;;;8.45;100.00
11099;BME280;12223;42.650;23.364;2023-05-12T01:34:04;94973.47;;;8.33;100.00
11099;BME280;12223;42.650;23.364;2023-05-12T01:36:31;94982.97;;;8.41;100.00
11099;BME280;12223;42.650;23.364;2023-05-12T01:38:58;94976.50;;;8.43;100.00
11099;BME280;12223;42.650;23.364;2023-05-12T01:41:25;94977.50;;;8.42;100.00
11099;BME280;12223;42.650;23.364;2023-05-12T01:43:53;94970.59;;;8.35;100.00
11099;BME280;12223;42.650;23.364;2023-05-12T01:46:20;94964.72;;;8.26;100.00
11099;BME280;12223;42.650;23.364;2023-05-12T01:48:46;94961.47;;;8.24;100.00
11099;BME280;12223;42.650;23.364;2023-05-12T01:51:14;94960.81;;;8.16;100.00
11099;BME280;12223;42.650;23.364;2023-05-12T01:53:41;94956.38;;;8.09;100.00
11099;BME280;12223;42.650;23.364;2023-05-12T01:56:08;94952.13;;;8.08;100.00
11099;BME280;12223;42.650;23.364;2023-05-12T01:58:35;94948.28;;;8.11;100.00
11099;BME280;12223;42.650;23.364;2023-05-12T02:01:03;94942.19;;;8.04;100.00
11099;BME280;12223;42.650;23.364;2023-05-12T02:03:30;94958.38;;;8.01;100.00
11099;BME280;12223;42.650;23.364;2023-05-12T02:05:57;94936.91;;;7.91;100.00
11099;BME280;12223;42.650;23.364;2023-05-12T02:08:23;94949.47;;;7.95;100.00
11099;BME280;12223;42.650;23.364;2023-05-12T02:11:03;94951.28;;;7.88;100.00
11099;BME280;12223;42.650;23.364;2023-05-12T02:13:30;94938.91;;;7.82;100.00
11099;BME280;12223;42.650;23.364;2023-05-12T02:15:57;94939.09;;;7.81;100.00
11099;BME280;12223;42.650;23.364;2023-05-12T02:18:25;94926.38;;;7.78;100.00
11099;BME280;12223;42.650;23.364;2023-05-12T02:20:52;94920.31;;;7.77;100.00
11099;BME280;12223;42.650;23.364;2023-05-12T02:23:19;94914.63;;;7.80;100.00
11099;BME280;12223;42.650;23.364;2023-05-12T02:25:46;94919.28;;;7.78;100.00
11099;BME280;12223;42.650;23.364;2023-05-12T02:28:13;94909.97;;;7.69;100.00
11099;BME280;12223;42.650;23.364;2023-05-12T02:30:44;94914.81;;;7.79;100.00
11099;BME280;12223;42.650;23.364;2023-05-12T02:33:12;94909.53;;;7.72;100.00
11099;BME280;12223;42.650;23.364;2023-05-12T02:35:42;94912.19;;;7.72;100.00
11099;BME280;12223;42.650;23.364;2023-05-12T02:38:09;94908.34;;;7.75;100.00
11099;BME280;12223;42.650;23.364;2023-05-12T02:40:36;94897.22;;;7.79;100.00
11099;BME280;12223;42.650;23.364;2023-05-12T02:43:03;94908.38;;;7.81;100.00
11099;BME280;12223;42.650;23.364;2023-05-12T02:45:30;94900.06;;;7.64;100.00
11099;BME280;12223;42.650;23.364;2023-05-12T02:48:06;94882.25;;;7.66;100.00
11099;BME280;12223;42.650;23.364;2023-05-12T02:50:32;94878.19;;;7.57;100.00
11099;BME280;12223;42.650;23.364;2023-05-12T02:53:01;94878.97;;;7.51;100.00
11099;BME280;12223;42.650;23.364;2023-05-12T02:55:27;94870.41;;;7.30;100.00
11099;BME280;12223;42.650;23.364;2023-05-12T02:57:55;94863.56;;;7.35;100.00
11099;BME280;12223;42.650;23.364;2023-05-12T03:00:21;94856.28;;;7.31;100.00
11099;BME280;12223;42.650;23.364;2023-05-12T03:02:50;94864.13;;;7.24;100.00
11099;BME280;12223;42.650;23.364;2023-05-12T03:05:16;94858.88;;;7.24;100.00
11099;BME280;12223;42.650;23.364;2023-05-12T03:07:43;94855.88;;;7.27;100.00
11099;BME280;12223;42.650;23.364;2023-05-12T03:10:12;94850.00;;;7.25;100.00
11099;BME280;12223;42.650;23.364;2023-05-12T03:12:42;94847.97;;;7.27;100.00
11099;BME280;12223;42.650;23.364;2023-05-12T03:15:09;94851.38;;;7.21;100.00
11099;BME280;12223;42.650;23.364;2023-05-12T03:17:36;94835.59;;;7.08;100.00
11099;BME280;12223;42.650;23.364;2023-05-12T03:20:04;94818.59;;;7.10;100.00
11099;BME280;12223;42.650;23.364;2023-05-12T03:22:31;94817.81;;;7.10;100.00
11099;BME280;12223;42.650;23.364;2023-05-12T03:24:58;94812.16;;;7.13;100.00
11099;BME280;12223;42.650;23.364;2023-05-12T03:27:26;94828.75;;;7.13;100.00
11099;BME280;12223;42.650;23.364;2023-05-12T03:29:53;94810.13;;;7.02;100.00
11099;BME280;12223;42.650;23.364;2023-05-12T03:32:20;94830.16;;;7.22;100.00
11099;BME280;12223;42.650;23.364;2023-05-12T03:34:46;94833.19;;;7.19;100.00
11099;BME280;12223;42.650;23.364;2023-05-12T03:37:14;94832.59;;;7.24;100.00
11099;BME280;12223;42.650;23.364;2023-05-12T03:39:41;94852.00;;;7.30;100.00
11099;BME280;12223;42.650;23.364;2023-05-12T03:42:07;94851.63;;;7.26;100.00
11099;BME280;12223;42.650;23.364;2023-05-12T03:44:36;94852.84;;;7.30;100.00
11099;BME280;12223;42.650;23.364;2023-05-12T03:47:03;94858.88;;;7.24;100.00
11099;BME280;12223;42.650;23.364;2023-05-12T03:49:30;94854.38;;;7.11;100.00
11099;BME280;12223;42.650;23.364;2023-05-12T03:51:56;94837.59;;;7.06;100.00
11099;BME280;12223;42.650;23.364;2023-05-12T03:54:23;94838.13;;;6.88;100.00
11099;BME280;12223;42.650;23.364;2023-05-12T03:56:51;94823.44;;;7.00;100.00
11099;BME280;12223;42.650;23.364;2023-05-12T03:59:18;94815.59;;;7.07;100.00
11099;BME280;12223;42.650;23.364;2023-05-12T04:01:47;94823.63;;;6.99;100.00
11099;BME280;12223;42.650;23.364;2023-05-12T04:04:14;94821.06;;;7.12;100.00
11099;BME280;12223;42.650;23.364;2023-05-12T04:06:41;94826.28;;;7.05;100.00
11099;BME280;12223;42.650;23.364;2023-05-12T04:09:08;94817.78;;;7.03;100.00
11099;BME280;12223;42.650;23.364;2023-05-12T04:11:36;94836.78;;;7.05;100.00
11099;BME280;12223;42.650;23.364;2023-05-12T04:14:02;94835.97;;;7.05;100.00
11099;BME280;12223;42.650;23.364;2023-05-12T04:16:29;94837.75;;;6.98;100.00
11099;BME280;12223;42.650;23.364;2023-05-12T04:19:01;94834.34;;;7.04;100.00
11099;BME280;12223;42.650;23.364;2023-05-12T04:21:28;94831.38;;;7.13;100.00
11099;BME280;12223;42.650;23.364;2023-05-12T04:23:55;94836.41;;;7.21;100.00
11099;BME280;12223;42.650;23.364;2023-05-12T04:26:21;94846.94;;;7.21;100.00
11099;BME280;12223;42.650;23.364;2023-05-12T04:28:48;94850.59;;;7.20;100.00
11099;BME280;12223;42.650;23.364;2023-05-12T04:31:15;94854.22;;;7.19;100.00
11099;BME280;12223;42.650;23.364;2023-05-12T04:33:42;94847.97;;;7.27;100.00
11099;BME280;12223;42.650;23.364;2023-05-12T04:36:11;94857.72;;;7.33;100.00
11099;BME280;12223;42.650;23.364;2023-05-12T04:38:38;94862.50;;;7.23;100.00
11099;BME280;12223;42.650;23.364;2023-05-12T04:41:06;94849.38;;;7.30;100.00
11099;BME280;12223;42.650;23.364;2023-05-12T04:43:33;94848.78;;;7.27;100.00
11099;BME280;12223;42.650;23.364;2023-05-12T04:46:00;94854.69;;;7.43;100.00
11099;BME280;12223;42.650;23.364;2023-05-12T04:48:27;94872.28;;;7.42;100.00
11099;BME280;12223;42.650;23.364;2023-05-12T04:50:54;94875.06;;;7.34;100.00
11099;BME280;12223;42.650;23.364;2023-05-12T04:53:22;94874.47;;;7.32;100.00
11099;BME280;12223;42.650;23.364;2023-05-12T04:55:49;94877.31;;;7.37;100.00
11099;BME280;12223;42.650;23.364;2023-05-12T04:58:17;94867.84;;;7.49;100.00
11099;BME280;12223;42.650;23.364;2023-05-12T05:00:44;94877.38;;;7.57;100.00
11099;BME280;12223;42.650;23.364;2023-05-12T05:03:11;94889.47;;;7.45;100.00
11099;BME280;12223;42.650;23.364;2023-05-12T05:05:38;94886.44;;;7.48;100.00
11099;BME280;12223;42.650;23.364;2023-05-12T05:08:06;94899.22;;;7.64;100.00
11099;BME280;12223;42.650;23.364;2023-05-12T05:10:34;94895.38;;;7.66;100.00
11099;BME280;12223;42.650;23.364;2023-05-12T05:13:01;94888.66;;;7.44;100.00
11099;BME280;12223;42.650;23.364;2023-05-12T05:15:30;94899.25;;;7.71;100.00
11099;BME280;12223;42.650;23.364;2023-05-12T05:17:56;94897.81;;;7.61;100.00
11099;BME280;12223;42.650;23.364;2023-05-12T05:20:24;94885.06;;;7.58;100.00
11099;BME280;12223;42.650;23.364;2023-05-12T05:22:54;94892.97;;;7.58;100.00
11099;BME280;12223;42.650;23.364;2023-05-12T05:25:21;94894.31;;;7.48;100.00
11099;BME280;12223;42.650;23.364;2023-05-12T05:27:51;94894.78;;;7.64;100.00
11099;BME280;12223;42.650;23.364;2023-05-12T05:30:18;94894.38;;;7.61;100.00
11099;BME280;12223;42.650;23.364;2023-05-12T05:32:48;94900.44;;;7.61;100.00
11099;BME280;12223;42.650;23.364;2023-05-12T05:35:15;94896.81;;;7.69;100.00
11099;BME280;12223;42.650;23.364;2023-05-12T05:37:44;94906.72;;;7.74;100.00
11099;BME280;12223;42.650;23.364;2023-05-12T05:40:11;94900.47;;;7.75;100.00
11099;BME280;12223;42.650;23.364;2023-05-12T05:42:38;94912.03;;;7.87;100.00
11099;BME280;12223;42.650;23.364;2023-05-12T05:45:08;94905.16;;;7.92;100.00
11099;BME280;12223;42.650;23.364;2023-05-12T05:47:35;94916.91;;;8.03;100.00
11099;BME280;12223;42.650;23.364;2023-05-12T05:50:02;94922.34;;;7.82;100.00
11099;BME280;12223;42.650;23.364;2023-05-12T05:52:29;94915.44;;;7.81;100.00
11099;BME280;12223;42.650;23.364;2023-05-12T05:54:57;94920.31;;;7.77;100.00
11099;BME280;12223;42.650;23.364;2023-05-12T05:57:24;94916.28;;;7.88;100.00
11099;BME280;12223;42.650;23.364;2023-05-12T05:59:53;94924.97;;;7.88;100.00
11099;BME280;12223;42.650;23.364;2023-05-12T06:02:22;94931.91;;;8.02;100.00
11099;BME280;12223;42.650;23.364;2023-05-12T06:04:48;94937.75;;;8.11;100.00
11099;BME280;12223;42.650;23.364;2023-05-12T06:07:16;94937.38;;;8.14;100.00
11099;BME280;12223;42.650;23.364;2023-05-12T06:09:43;94944.25;;;8.08;100.00
11099;BME280;12223;42.650;23.364;2023-05-12T06:12:10;94954.97;;;8.14;100.00
11099;BME280;12223;42.650;23.364;2023-05-12T06:14:37;94955.19;;;8.25;100.00
11099;BME280;12223;42.650;23.364;2023-05-12T06:17:04;94955.19;;;8.25;100.00
11099;BME280;12223;42.650;23.364;2023-05-12T06:19:32;94978.47;;;8.22;100.00
11099;BME280;12223;42.650;23.364;2023-05-12T06:21:59;94969.78;;;8.21;100.00
11099;BME280;12223;42.650;23.364;2023-05-12T06:24:26;94974.47;;;8.39;100.00
11099;BME280;12223;42.650;23.364;2023-05-12T06:26:53;94977.94;;;8.53;100.00
11099;BME280;12223;42.650;23.364;2023-05-12T06:29:20;94999.59;;;8.55;100.00
11099;BME280;12223;42.650;23.364;2023-05-12T06:31:47;95007.47;;;8.55;100.00
11099;BME280;12223;42.650;23.364;2023-05-12T06:34:13;95018.00;;;8.55;100.00
11099;BME280;12223;42.650;23.364;2023-05-12T06:36:42;95018.84;;;8.62;100.00
11099;BME280;12223;42.650;23.364;2023-05-12T06:39:08;95015.22;;;8.76;100.00
11099;BME280;12223;42.650;23.364;2023-05-12T06:41:35;95009.53;;;8.92;100.00
11099;BME280;12223;42.650;23.364;2023-05-12T06:44:02;95029.78;;;8.98;100.00
11099;BME280;12223;42.650;23.364;2023-05-12T06:46:30;95040.75;;;9.08;100.00
11099;BME280;12223;42.650;23.364;2023-05-12T06:48:57;95050.84;;;9.18;100.00
11099;BME280;12223;42.650;23.364;2023-05-12T06:51:25;95055.72;;;9.14;100.00
11099;BME280;12223;42.650;23.364;2023-05-12T06:53:54;95061.41;;;9.11;100.00
11099;BME280;12223;42.650;23.364;2023-05-12T06:56:21;95059.56;;;8.99;100.00
11099;BME280;12223;42.650;23.364;2023-05-12T06:58:48;95047.63;;;9.03;100.00
11099;BME280;12223;42.650;23.364;2023-05-12T07:01:16;95067.09;;;9.08;100.00
11099;BME280;12223;42.650;23.364;2023-05-12T07:03:43;95059.56;;;9.18;100.00
11099;BME280;12223;42.650;23.364;2023-05-12T07:06:10;95064.47;;;9.15;100.00
11099;BME280;12223;42.650;23.364;2023-05-12T07:08:36;95071.34;;;9.09;100.00
11099;BME280;12223;42.650;23.364;2023-05-12T07:11:06;95069.91;;;9.13;100.00
11099;BME280;12223;42.650;23.364;2023-05-12T07:13:33;95074.56;;;9.05;100.00
11099;BME280;12223;42.650;23.364;2023-05-12T07:16:02;95068.72;;;9.16;100.00
11099;BME280;12223;42.650;23.364;2023-05-12T07:18:31;95078.03;;;9.18;100.00
11099;BME280;12223;42.650;23.364;2023-05-12T07:20:58;95079.66;;;9.19;100.00
11099;BME280;12223;42.650;23.364;2023-05-12T07:23:25;95066.66;;;9.11;100.00
11099;BME280;12223;42.650;23.364;2023-05-12T07:25:52;95082.91;;;9.41;100.00
11099;BME280;12223;42.650;23.364;2023-05-12T07:28:22;95081.06;;;9.35;100.00
11099;BME280;12223;42.650;23.364;2023-05-12T07:30:49;95065.25;;;9.22;100.00
11099;BME280;12223;42.650;23.364;2023-05-12T07:33:16;95075.38;;;9.45;100.00
11099;BME280;12223;42.650;23.364;2023-05-12T07:35:44;95064.22;;;9.36;100.00
11099;BME280;12223;42.650;23.364;2023-05-12T07:38:11;95068.47;;;9.57;100.00
11099;BME280;12223;42.650;23.364;2023-05-12T07:40:40;95087.31;;;9.74;100.00
11099;BME280;12223;42.650;23.364;2023-05-12T07:43:07;95071.66;;;9.79;100.00
11099;BME280;12223;42.650;23.364;2023-05-12T07:45:35;95091.47;;;10.01;100.00
11099;BME280;12223;42.650;23.364;2023-05-12T07:48:03;95098.16;;;10.23;100.00
11099;BME280;12223;42.650;23.364;2023-05-12T07:50:30;95085.97;;;10.22;100.00
11099;BME280;12223;42.650;23.364;2023-05-12T07:52:57;95093.78;;;10.48;100.00
11099;BME280;12223;42.650;23.364;2023-05-12T07:55:24;95086.66;;;10.49;100.00
11099;BME280;12223;42.650;23.364;2023-05-12T07:57:51;95086.13;;;10.72;100.00
11099;BME280;12223;42.650;23.364;2023-05-12T08:00:18;95085.38;;;10.58;100.00
11099;BME280;12223;42.650;23.364;2023-05-12T08:02:48;95094.53;;;10.18;100.00
11099;BME280;12223;42.650;23.364;2023-05-12T08:05:15;95084.44;;;10.46;100.00
11099;BME280;12223;42.650;23.364;2023-05-12T08:07:43;95075.19;;;11.00;100.00
11099;BME280;12223;42.650;23.364;2023-05-12T08:10:11;95096.25;;;11.38;100.00
11099;BME280;12223;42.650;23.364;2023-05-12T08:12:38;95080.91;;;11.21;100.00
11099;BME280;12223;42.650;23.364;2023-05-12T08:15:06;95090.44;;;10.98;100.00
11099;BME280;12223;42.650;23.364;2023-05-12T08:17:34;95090.72;;;11.14;100.00
11099;BME280;12223;42.650;23.364;2023-05-12T08:20:03;95090.97;;;10.75;100.00
11099;BME280;12223;42.650;23.364;2023-05-12T08:22:31;95098.69;;;10.76;100.00
11099;BME280;12223;42.650;23.364;2023-05-12T08:24:59;95093.84;;;10.35;100.00
11099;BME280;12223;42.650;23.364;2023-05-12T08:27:43;95087.72;;;10.41;100.00
11099;BME280;12223;42.650;23.364;2023-05-12T08:30:10;95096.94;;;10.64;100.00
11099;BME280;12223;42.650;23.364;2023-05-12T08:32:37;95094.31;;;10.57;100.00
11099;BME280;12223;42.650;23.364;2023-05-12T08:35:38;95102.06;;;10.52;100.00
11099;BME280;12223;42.650;23.364;2023-05-12T08:38:05;95091.44;;;10.27;100.00
11099;BME280;12223;42.650;23.364;2023-05-12T08:40:46;95090.53;;;10.46;100.00
11099;BME280;12223;42.650;23.364;2023-05-12T08:43:25;95102.78;;;10.72;100.00
11099;BME280;12223;42.650;23.364;2023-05-12T08:45:55;95096.22;;;10.81;100.00
11099;BME280;12223;42.650;23.364;2023-05-12T08:48:25;95100.84;;;10.93;100.00
11099;BME280;12223;42.650;23.364;2023-05-12T08:50:54;95083.94;;;11.25;100.00
11099;BME280;12223;42.650;23.364;2023-05-12T08:53:23;95094.88;;;11.28;100.00
11099;BME280;12223;42.650;23.364;2023-05-12T08:55:52;95100.72;;;11.37;100.00
11099;BME280;12223;42.650;23.364;2023-05-12T08:58:20;95099.81;;;11.25;100.00
11099;BME280;12223;42.650;23.364;2023-05-12T09:00:51;95098.72;;;11.33;100.00
11099;BME280;12223;42.650;23.364;2023-05-12T09:03:26;95101.34;;;11.57;100.00
11099;BME280;12223;42.650;23.364;2023-05-12T09:05:56;95095.84;;;11.84;100.00
11099;BME280;12223;42.650;23.364;2023-05-12T09:08:24;95099.25;;;12.09;100.00
11099;BME280;12223;42.650;23.364;2023-05-12T09:10:55;95087.84;;;12.27;100.00
11099;BME280;12223;42.650;23.364;2023-05-12T09:13:27;95091.31;;;12.45;100.00
11099;BME280;12223;42.650;23.364;2023-05-12T09:15:57;95078.00;;;12.16;100.00
11099;BME280;12223;42.650;23.364;2023-05-12T09:18:30;95068.72;;;12.43;100.00
11099;BME280;12223;42.650;23.364;2023-05-12T09:21:09;95087.16;;;12.49;100.00
11099;BME280;12223;42.650;23.364;2023-05-12T09:23:37;95088.50;;;12.40;100.00
11099;BME280;12223;42.650;23.364;2023-05-12T09:26:04;95085.13;;;12.52;100.00
11099;BME280;12223;42.650;23.364;2023-05-12T09:28:35;95083.59;;;12.74;100.00
11099;BME280;12223;42.650;23.364;2023-05-12T09:31:17;95086.34;;;12.79;100.00
11099;BME280;12223;42.650;23.364;2023-05-12T09:33:44;95076.66;;;12.73;100.00
11099;BME280;12223;42.650;23.364;2023-05-12T09:36:18;95061.78;;;13.02;100.00
11099;BME280;12223;42.650;23.364;2023-05-12T09:39:01;95061.16;;;13.29;100.00
11099;BME280;12223;42.650;23.364;2023-05-12T09:41:30;95072.03;;;13.51;97.04
11099;BME280;12223;42.650;23.364;2023-05-12T09:43:59;95074.34;;;13.83;92.10
11099;BME280;12223;42.650;23.364;2023-05-12T09:46:28;95071.53;;;14.13;91.15
11099;BME280;12223;42.650;23.364;2023-05-12T09:48:56;95062.28;;;14.27;85.11
11099;BME280;12223;42.650;23.364;2023-05-12T09:51:25;95087.97;;;14.61;82.79
11099;BME280;12223;42.650;23.364;2023-05-12T09:53:53;95085.16;;;14.79;77.70
11099;BME280;12223;42.650;23.364;2023-05-12T09:56:20;95089.81;;;14.89;73.85
11099;BME280;12223;42.650;23.364;2023-05-12T09:58:49;95066.88;;;14.43;73.91
11099;BME280;12223;42.650;23.364;2023-05-12T10:01:19;95063.41;;;14.42;76.80
11099;BME280;12223;42.650;23.364;2023-05-12T10:03:48;95041.25;;;14.25;70.99
11099;BME280;12223;42.650;23.364;2023-05-12T10:06:24;95080.91;;;14.67;71.28
11099;BME280;12223;42.650;23.364;2023-05-12T10:09:01;95071.53;;;14.93;71.14
11099;BME280;12223;42.650;23.364;2023-05-12T10:11:31;95060.03;;;15.04;72.06
11099;BME280;12223;42.650;23.364;2023-05-12T10:13:58;95070.69;;;15.04;69.09
11099;BME280;12223;42.650;23.364;2023-05-12T10:16:27;95067.63;;;14.67;67.62
11099;BME280;12223;42.650;23.364;2023-05-12T10:18:54;95052.88;;;15.04;70.39
11099;BME280;12223;42.650;23.364;2023-05-12T10:21:23;95057.31;;;15.32;67.68
11099;BME280;12223;42.650;23.364;2023-05-12T10:23:51;95066.06;;;15.61;66.90
11099;BME280;12223;42.650;23.364;2023-05-12T10:26:22;95070.78;;;15.92;66.70
11099;BME280;12223;42.650;23.364;2023-05-12T10:28:50;95058.53;;;16.13;62.60
11099;BME280;12223;42.650;23.364;2023-05-12T10:31:18;95042.19;;;16.04;62.32
11099;BME280;12223;42.650;23.364;2023-05-12T10:33:55;95047.84;;;16.30;62.39
11099;BME280;12223;42.650;23.364;2023-05-12T10:36:24;95048.78;;;16.40;59.81
11099;BME280;12223;42.650;23.364;2023-05-12T10:38:52;95028.53;;;16.44;61.65
11099;BME280;12223;42.650;23.364;2023-05-12T10:41:30;95040.09;;;16.72;64.06
11099;BME280;12223;42.650;23.364;2023-05-12T10:44:00;95045.31;;;16.62;59.97
11099;BME280;12223;42.650;23.364;2023-05-12T10:46:28;95046.13;;;16.62;60.08
11099;BME280;12223;42.650;23.364;2023-05-12T10:48:57;95035.72;;;16.61;62.25
11099;BME280;12223;42.650;23.364;2023-05-12T10:51:28;95040.41;;;16.75;61.12
11099;BME280;12223;42.650;23.364;2023-05-12T10:54:06;95039.66;;;16.80;58.81
11099;BME280;12223;42.650;23.364;2023-05-12T10:56:42;95047.31;;;16.76;59.58
11099;BME280;12223;42.650;23.364;2023-05-12T10:59:12;95047.69;;;15.98;61.83
11099;BME280;12223;42.650;23.364;2023-05-12T11:01:42;95051.38;;;16.35;61.98
11099;BME280;12223;42.650;23.364;2023-05-12T11:04:11;95041.44;;;16.53;58.97
11099;BME280;12223;42.650;23.364;2023-05-12T11:06:41;95045.94;;;16.69;59.48
11099;BME280;12223;42.650;23.364;2023-05-12T11:09:09;95053.03;;;16.85;59.47
11099;BME280;12223;42.650;23.364;2023-05-12T11:11:37;95058.38;;;16.41;58.95
11099;BME280;12223;42.650;23.364;2023-05-12T11:17:19;95053.41;;;16.94;56.17
11099;BME280;12223;42.650;23.364;2023-05-12T11:19:47;95051.06;;;17.02;55.40
11099;BME280;12223;42.650;23.364;2023-05-12T11:22:16;95056.41;;;17.02;54.17
11099;BME280;12223;42.650;23.364;2023-05-12T11:24:47;95054.03;;;16.79;54.64
11099;BME280;12223;42.650;23.364;2023-05-12T11:27:16;95053.19;;;17.00;55.30
11099;BME280;12223;42.650;23.364;2023-05-12T11:29:54;95066.13;;;16.86;54.76
11099;BME280;12223;42.650;23.364;2023-05-12T11:32:23;95059.72;;;16.61;54.80
11099;BME280;12223;42.650;23.364;2023-05-12T11:34:50;95066.56;;;16.35;55.94
11099;BME280;12223;42.650;23.364;2023-05-12T11:37:17;95061.84;;;16.42;57.10
11099;BME280;12223;42.650;23.364;2023-05-12T11:39:45;95063.19;;;16.44;56.29
11099;BME280;12223;42.650;23.364;2023-05-12T11:42:12;95072.00;;;16.45;56.48
11099;BME280;12223;42.650;23.364;2023-05-12T11:44:45;95066.66;;;16.62;54.19
11099;BME280;12223;42.650;23.364;2023-05-12T11:47:13;95064.38;;;16.54;55.13
11099;BME280;12223;42.650;23.364;2023-05-12T11:49:48;95062.66;;;16.42;55.32
11099;BME280;12223;42.650;23.364;2023-05-12T11:52:16;95065.94;;;16.28;55.99
11099;BME280;12223;42.650;23.364;2023-05-12T11:54:47;95061.88;;;16.03;55.98
11099;BME280;12223;42.650;23.364;2023-05-12T11:57:25;95060.78;;;15.99;57.98
11099;BME280;12223;42.650;23.364;2023-05-12T11:59:56;95070.53;;;15.94;59.10
11099;BME280;12223;42.650;23.364;2023-05-12T12:02:23;95063.84;;;15.75;60.63
11099;BME280;12223;42.650;23.364;2023-05-12T12:04:54;95062.97;;;15.69;61.29
11099;BME280;12223;42.650;23.364;2023-05-12T12:07:28;95071.56;;;15.54;60.31
11099;BME280;12223;42.650;23.364;2023-05-12T12:09:56;95069.44;;;15.56;59.62
11099;BME280;12223;42.650;23.364;2023-05-12T12:12:23;95070.72;;;15.71;59.63
11099;BME280;12223;42.650;23.364;2023-05-12T12:14:50;95071.13;;;15.79;59.78
11099;BME280;12223;42.650;23.364;2023-05-12T12:17:16;95073.66;;;15.52;59.00
11099;BME280;12223;42.650;23.364;2023-05-12T12:19:56;95072.97;;;15.45;59.56
11099;BME280;12223;42.650;23.364;2023-05-12T12:22:23;95070.00;;;15.42;60.68
11099;BME280;12223;42.650;23.364;2023-05-12T12:24:51;95074.28;;;15.43;59.73
11099;BME280;12223;42.650;23.364;2023-05-12T12:27:18;95064.50;;;15.48;59.20
11099;BME280;12223;42.650;23.364;2023-05-12T12:29:45;95068.06;;;15.71;59.11
11099;BME280;12223;42.650;23.364;2023-05-12T12:32:26;95064.25;;;15.83;58.36
11099;BME280;12223;42.650;23.364;2023-05-12T12:34:55;95064.66;;;15.92;57.88
11099;BME280;12223;42.650;23.364;2023-05-12T12:37:26;95064.59;;;15.87;58.23
11099;BME280;12223;42.650;23.364;2023-05-12T12:39:53;95066.88;;;16.00;59.48
11099;BME280;12223;42.650;23.364;2023-05-12T12:42:20;95068.47;;;15.79;57.69
11099;BME280;12223;42.650;23.364;2023-05-12T12:44:46;95064.00;;;15.51;57.25
11099;BME280;12223;42.650;23.364;2023-05-12T12:47:16;95057.69;;;15.52;56.77
11099;BME280;12223;42.650;23.364;2023-05-12T12:49:44;95070.63;;;15.32;56.41
11099;BME280;12223;42.650;23.364;2023-05-12T12:52:17;95069.47;;;15.11;58.41
11099;BME280;12223;42.650;23.364;2023-05-12T12:54:44;95069.50;;;15.28;58.48
11099;BME280;12223;42.650;23.364;2023-05-12T12:57:11;95073.19;;;15.27;56.77